createdAt,value
2018-01-15T00:00:28.379Z,0
2018-01-15T00:01:29.780Z,0
2018-01-15T00:02:31.267Z,0
2018-01-15T00:03:32.664Z,0
2018-01-15T00:04:34.141Z,0
2018-01-15T00:05:35.544Z,0
2018-01-15T00:06:37.021Z,0
2018-01-15T00:07:38.422Z,0
2018-01-15T00:08:39.822Z,0
2018-01-15T00:09:41.341Z,0
2018-01-15T00:10:42.745Z,0
2018-01-15T00:11:44.153Z,0
2018-01-15T00:12:45.665Z,0
2018-01-15T00:13:47.069Z,0
2018-01-15T00:14:48.469Z,0
2018-01-15T00:15:49.988Z,0
2018-01-15T00:16:51.388Z,0
2018-01-15T00:17:52.788Z,0
2018-01-15T00:18:54.308Z,0
2018-01-15T00:19:55.709Z,0
2018-01-15T00:20:57.114Z,0
2018-01-15T00:21:58.626Z,0
2018-01-15T00:23:00.032Z,0
2018-01-15T00:24:01.429Z,0
2018-01-15T00:25:02.948Z,0
2018-01-15T00:26:04.356Z,0
2018-01-15T00:27:05.832Z,0
2018-01-15T00:28:07.239Z,0
2018-01-15T00:29:08.641Z,0
2018-01-15T00:30:10.150Z,0
2018-01-15T00:31:11.551Z,0
2018-01-15T00:32:12.959Z,0
2018-01-15T00:33:14.471Z,0
2018-01-15T00:34:15.877Z,0
2018-01-15T00:35:17.275Z,0
2018-01-15T00:36:18.793Z,0
2018-01-15T00:37:20.192Z,0
2018-01-15T00:38:21.593Z,0
2018-01-15T00:39:23.113Z,0
2018-01-15T00:40:24.519Z,0
2018-01-15T00:41:25.995Z,0
2018-01-15T00:42:27.406Z,0
2018-01-15T00:43:28.798Z,0
2018-01-15T00:44:30.314Z,0
2018-01-15T00:45:31.721Z,0
2018-01-15T00:46:33.122Z,0
2018-01-15T00:47:34.644Z,0
2018-01-15T00:48:36.042Z,0
2018-01-15T00:49:37.446Z,0
2018-01-15T00:50:38.957Z,0
2018-01-15T00:51:40.360Z,0
2018-01-15T00:52:41.839Z,0
2018-01-15T00:53:43.241Z,0
2018-01-15T00:54:44.644Z,0
2018-01-15T00:55:46.158Z,0
2018-01-15T00:56:47.564Z,0
2018-01-15T00:57:48.965Z,0
2018-01-15T00:58:50.481Z,0
2018-01-15T00:59:51.882Z,0
2018-01-15T01:00:53.363Z,0
2018-01-15T01:01:54.777Z,0
2018-01-15T01:02:56.242Z,0
2018-01-15T01:03:57.647Z,0
2018-01-15T01:04:59.124Z,0
2018-01-15T01:06:00.524Z,0
2018-01-15T01:07:02.007Z,0
2018-01-15T01:08:03.410Z,0
2018-01-15T01:09:04.886Z,0
2018-01-15T01:10:06.338Z,0
2018-01-15T01:11:07.695Z,0
2018-01-15T01:12:09.209Z,0
2018-01-15T01:13:10.611Z,0
2018-01-15T01:14:12.013Z,0
2018-01-15T01:15:13.526Z,0
2018-01-15T01:16:14.933Z,0
2018-01-15T01:17:16.356Z,0
2018-01-15T01:18:17.848Z,0
2018-01-15T01:19:19.249Z,0
2018-01-15T01:20:20.649Z,0
2018-01-15T01:21:22.168Z,0
2018-01-15T01:22:23.579Z,0
2018-01-15T01:23:25.052Z,0
2018-01-15T01:24:26.456Z,0
2018-01-15T01:25:27.859Z,0
2018-01-15T01:26:29.370Z,0
2018-01-15T01:27:30.772Z,0
2018-01-15T01:28:32.176Z,0
2018-01-15T01:29:33.692Z,0
2018-01-15T01:30:35.095Z,0
2018-01-15T01:31:36.574Z,0
2018-01-15T01:32:37.981Z,0
2018-01-15T01:33:39.460Z,0
2018-01-15T01:34:40.856Z,0
2018-01-15T01:35:42.259Z,0
2018-01-15T01:36:43.774Z,0
2018-01-15T01:37:45.178Z,0
2018-01-15T01:38:46.581Z,0
2018-01-15T01:39:48.095Z,0
2018-01-15T01:40:50.373Z,0
2018-01-15T01:41:51.744Z,0
2018-01-15T01:42:53.235Z,0
2018-01-15T01:43:54.641Z,0
2018-01-15T01:44:56.042Z,0
2018-01-15T01:45:57.558Z,0
2018-01-15T01:46:58.970Z,0
2018-01-15T01:48:00.439Z,0
2018-01-15T01:49:01.849Z,0
2018-01-15T01:50:03.321Z,0
2018-01-15T01:51:04.725Z,0
2018-01-15T01:52:06.200Z,0
2018-01-15T01:53:07.647Z,0
2018-01-15T01:54:09.291Z,0
2018-01-15T01:55:10.691Z,0
2018-01-15T01:56:12.089Z,0
2018-01-15T01:57:13.605Z,0
2018-01-15T01:58:15.011Z,0
2018-01-15T01:59:16.413Z,0
2018-01-15T02:00:17.927Z,0
2018-01-15T02:01:19.334Z,0
2018-01-15T02:02:20.808Z,0
2018-01-15T02:03:22.215Z,0
2018-01-15T02:04:23.689Z,0
2018-01-15T02:05:25.099Z,0
2018-01-15T02:06:26.497Z,0
2018-01-15T02:07:28.010Z,0
2018-01-15T02:08:29.417Z,0
2018-01-15T02:09:30.816Z,0
2018-01-15T02:10:32.331Z,0
2018-01-15T02:11:33.740Z,0
2018-01-15T02:12:35.134Z,0
2018-01-15T02:13:36.650Z,0
2018-01-15T02:14:38.060Z,0
2018-01-15T02:15:39.462Z,0
2018-01-15T02:16:40.974Z,0
2018-01-15T02:17:42.381Z,0
2018-01-15T02:18:43.779Z,0
2018-01-15T02:19:45.297Z,0
2018-01-15T02:20:46.703Z,0
2018-01-15T02:21:48.105Z,0
2018-01-15T02:22:49.616Z,0
2018-01-15T02:23:51.016Z,0
2018-01-15T02:24:52.417Z,0
2018-01-15T02:25:53.979Z,0
2018-01-15T02:26:55.344Z,0
2018-01-15T02:27:56.820Z,0
2018-01-15T02:28:58.226Z,0
2018-01-15T02:29:59.699Z,0
2018-01-15T02:31:01.103Z,0
2018-01-15T02:32:02.580Z,0
2018-01-15T02:33:03.990Z,0
2018-01-15T02:34:05.460Z,0
2018-01-15T02:35:06.864Z,0
2018-01-15T02:36:08.267Z,0
2018-01-15T02:37:09.781Z,0
2018-01-15T02:38:11.185Z,0
2018-01-15T02:39:12.592Z,0
2018-01-15T02:40:14.102Z,0
2018-01-15T02:41:15.524Z,0
2018-01-15T02:42:16.984Z,0
2018-01-15T02:43:18.389Z,0
2018-01-15T02:44:19.865Z,0
2018-01-15T02:45:21.268Z,0
2018-01-15T02:46:22.667Z,0
2018-01-15T02:47:24.185Z,0
2018-01-15T02:48:25.591Z,0
2018-01-15T02:49:26.994Z,0
2018-01-15T02:50:28.504Z,0
2018-01-15T02:51:29.919Z,0
2018-01-15T02:52:31.388Z,0
2018-01-15T02:53:32.794Z,0
2018-01-15T02:54:34.266Z,0
2018-01-15T02:55:35.673Z,0
2018-01-15T02:56:37.155Z,0
2018-01-15T02:57:38.554Z,0
2018-01-15T02:58:40.032Z,0
2018-01-15T02:59:41.432Z,0
2018-01-15T03:00:42.910Z,0
2018-01-15T03:01:44.315Z,0
2018-01-15T03:02:45.790Z,0
2018-01-15T03:03:47.195Z,0
2018-01-15T03:04:48.673Z,0
2018-01-15T03:05:50.080Z,0
2018-01-15T03:06:51.552Z,0
2018-01-15T03:07:52.955Z,0
2018-01-15T03:08:54.431Z,0
2018-01-15T03:09:55.837Z,0
2018-01-15T03:10:57.315Z,0
2018-01-15T03:11:58.719Z,0
2018-01-15T03:13:00.194Z,0
2018-01-15T03:14:01.599Z,0
2018-01-15T03:15:03.002Z,0
2018-01-15T03:16:04.515Z,0
2018-01-15T03:17:05.919Z,0
2018-01-15T03:18:07.324Z,0
2018-01-15T03:19:08.836Z,0
2018-01-15T03:20:10.244Z,0
2018-01-15T03:21:11.643Z,0
2018-01-15T03:22:13.157Z,0
2018-01-15T03:23:14.561Z,0
2018-01-15T03:24:15.963Z,0
2018-01-15T03:25:17.478Z,0
2018-01-15T03:26:18.884Z,0
2018-01-15T03:27:20.290Z,0
2018-01-15T03:28:21.801Z,0
2018-01-15T03:29:23.206Z,0
2018-01-15T03:30:24.609Z,0
2018-01-15T03:31:26.139Z,0
2018-01-15T03:32:27.529Z,0
2018-01-15T03:33:29.002Z,0
2018-01-15T03:34:30.418Z,0
2018-01-15T03:35:31.886Z,0
2018-01-15T03:36:33.286Z,0
2018-01-15T03:37:34.688Z,0
2018-01-15T03:38:36.204Z,0
2018-01-15T03:39:37.606Z,0
2018-01-15T03:40:39.011Z,0
2018-01-15T03:41:40.530Z,0
2018-01-15T03:42:41.929Z,0
2018-01-15T03:43:43.409Z,0
2018-01-15T03:44:44.811Z,0
2018-01-15T03:45:46.215Z,0
2018-01-15T03:46:47.728Z,0
2018-01-15T03:47:49.138Z,0
2018-01-15T03:48:50.540Z,0
2018-01-15T03:49:52.048Z,0
2018-01-15T03:50:53.449Z,0
2018-01-15T03:51:54.854Z,0
2018-01-15T03:52:56.369Z,0
2018-01-15T03:53:57.773Z,0
2018-01-15T03:54:59.177Z,0
2018-01-15T03:56:00.690Z,0
2018-01-15T03:57:02.094Z,0
2018-01-15T03:58:03.571Z,0
2018-01-15T03:59:04.974Z,0
2018-01-15T04:00:06.477Z,0
2018-01-15T04:01:07.898Z,0
2018-01-15T04:02:09.336Z,0
2018-01-15T04:03:10.740Z,0
2018-01-15T04:04:12.213Z,0
2018-01-15T04:05:13.618Z,0
2018-01-15T04:06:15.096Z,0
2018-01-15T04:07:16.495Z,0
2018-01-15T04:08:17.977Z,0
2018-01-15T04:09:19.380Z,0
2018-01-15T04:10:20.857Z,0
2018-01-15T04:11:22.260Z,0
2018-01-15T04:12:23.664Z,0
2018-01-15T04:13:25.178Z,0
2018-01-15T04:14:26.582Z,0
2018-01-15T04:15:27.986Z,0
2018-01-15T04:16:29.500Z,0
2018-01-15T04:17:30.905Z,0
2018-01-15T04:18:32.310Z,0
2018-01-15T04:19:33.821Z,0
2018-01-15T04:20:35.223Z,0
2018-01-15T04:21:36.627Z,0
2018-01-15T04:22:38.142Z,0
2018-01-15T04:23:39.547Z,0
2018-01-15T04:24:40.952Z,0
2018-01-15T04:25:42.464Z,0
2018-01-15T04:26:44.252Z,0
2018-01-15T04:27:45.653Z,0
2018-01-15T04:28:47.214Z,0
2018-01-15T04:29:48.625Z,0
2018-01-15T04:30:50.024Z,0
2018-01-15T04:31:51.516Z,0
2018-01-15T04:32:52.920Z,0
2018-01-15T04:33:54.395Z,0
2018-01-15T04:34:55.799Z,0
2018-01-15T04:35:57.278Z,0
2018-01-15T04:36:58.682Z,0
2018-01-15T04:38:00.156Z,0
2018-01-15T04:39:01.562Z,0
2018-01-15T04:40:03.141Z,0
2018-01-15T04:41:04.544Z,0
2018-01-15T04:42:05.947Z,0
2018-01-15T04:43:07.668Z,0
2018-01-15T04:44:09.072Z,0
2018-01-15T04:45:10.473Z,0
2018-01-15T04:46:12.088Z,0
2018-01-15T04:47:13.490Z,0
2018-01-15T04:48:14.969Z,0
2018-01-15T04:49:16.373Z,0
2018-01-15T04:50:17.954Z,0
2018-01-15T04:51:19.359Z,0
2018-01-15T04:52:21.038Z,0
2018-01-15T04:53:22.450Z,0
2018-01-15T04:54:24.134Z,0
2018-01-15T04:55:25.543Z,0
2018-01-15T04:56:27.208Z,0
2018-01-15T04:57:28.613Z,0
2018-01-15T04:58:30.296Z,0
2018-01-15T04:59:31.702Z,0
2018-01-15T05:00:33.386Z,0
2018-01-15T05:01:34.784Z,0
2018-01-15T05:02:36.186Z,0
2018-01-15T05:03:37.907Z,0
2018-01-15T05:04:39.312Z,0
2018-01-15T05:05:40.717Z,0
2018-01-15T05:06:42.432Z,0
2018-01-15T05:07:43.836Z,0
2018-01-15T05:08:45.518Z,0
2018-01-15T05:09:46.937Z,0
2018-01-15T05:10:48.605Z,0
2018-01-15T05:11:50.009Z,0
2018-01-15T05:12:51.689Z,0
2018-01-15T05:13:53.093Z,0
2018-01-15T05:14:54.777Z,0
2018-01-15T05:15:56.217Z,0
2018-01-15T05:16:57.860Z,0
2018-01-15T05:17:59.263Z,0
2018-01-15T05:19:00.948Z,0
2018-01-15T05:20:02.353Z,0
2018-01-15T05:21:04.031Z,0
2018-01-15T05:22:05.438Z,0
2018-01-15T05:23:06.843Z,0
2018-01-15T05:24:08.454Z,0
2018-01-15T05:25:09.856Z,0
2018-01-15T05:26:11.260Z,0
2018-01-15T05:27:12.774Z,0
2018-01-15T05:28:14.181Z,0
2018-01-15T05:29:15.588Z,0
2018-01-15T05:30:17.099Z,0
2018-01-15T05:31:18.500Z,0
2018-01-15T05:32:19.905Z,0
2018-01-15T05:33:21.418Z,0
2018-01-15T05:34:22.825Z,0
2018-01-15T05:35:24.229Z,0
2018-01-15T05:36:25.841Z,0
2018-01-15T05:37:27.247Z,0
2018-01-15T05:38:28.647Z,0
2018-01-15T05:39:30.163Z,0
2018-01-15T05:40:31.567Z,0
2018-01-15T05:41:33.033Z,0
2018-01-15T05:42:34.691Z,0
2018-01-15T05:43:36.096Z,0
2018-01-15T05:44:37.496Z,0
2018-01-15T05:45:39.218Z,0
2018-01-15T05:46:40.620Z,0
2018-01-15T05:47:42.028Z,0
2018-01-15T05:48:43.743Z,0
2018-01-15T05:49:45.149Z,0
2018-01-15T05:50:46.829Z,0
2018-01-15T05:51:48.231Z,0
2018-01-15T05:52:49.915Z,0
2018-01-15T05:53:51.318Z,0
2018-01-15T05:54:53.000Z,0
2018-01-15T05:55:54.404Z,0
2018-01-15T05:56:56.086Z,0
2018-01-15T05:57:57.493Z,0
2018-01-15T05:58:59.171Z,0
2018-01-15T06:00:00.576Z,0
2018-01-15T06:01:02.267Z,0
2018-01-15T06:02:03.670Z,0
2018-01-15T06:03:05.073Z,0
2018-01-15T06:04:06.792Z,0
2018-01-15T06:05:08.185Z,0
2018-01-15T06:06:09.585Z,0
2018-01-15T06:07:11.123Z,0
2018-01-15T06:08:12.511Z,0
2018-01-15T06:09:14.195Z,0
2018-01-15T06:10:15.597Z,0
2018-01-15T06:11:17.329Z,0
2018-01-15T06:12:18.688Z,0
2018-01-15T06:13:20.370Z,0
2018-01-15T06:14:21.771Z,0
2018-01-15T06:15:24.089Z,0
2018-01-15T06:16:25.447Z,0
2018-01-15T06:17:27.048Z,0
2018-01-15T06:18:28.453Z,0
2018-01-15T06:19:29.930Z,0
2018-01-15T06:20:31.332Z,0
2018-01-15T06:21:32.819Z,0
2018-01-15T06:22:34.227Z,0
2018-01-15T06:23:35.629Z,0
2018-01-15T06:24:37.133Z,0
2018-01-15T06:25:38.534Z,0
2018-01-15T06:26:39.949Z,0
2018-01-15T06:27:41.454Z,0
2018-01-15T06:28:42.857Z,0
2018-01-15T06:29:44.260Z,0
2018-01-15T06:30:45.783Z,0
2018-01-15T06:31:47.186Z,0
2018-01-15T06:32:48.590Z,0
2018-01-15T06:33:50.097Z,0
2018-01-15T06:34:51.503Z,0
2018-01-15T06:35:52.978Z,0
2018-01-15T06:36:54.478Z,0
2018-01-15T06:37:56.981Z,0
2018-01-15T06:38:58.528Z,0
2018-01-15T06:39:59.932Z,0
2018-01-15T06:41:01.361Z,0
2018-01-15T06:42:02.851Z,0
2018-01-15T06:43:04.253Z,0
2018-01-15T06:44:05.659Z,0
2018-01-15T06:45:07.173Z,0
2018-01-15T06:46:08.575Z,0
2018-01-15T06:47:10.053Z,0
2018-01-15T06:48:11.460Z,0
2018-01-15T06:49:12.935Z,0
2018-01-15T06:50:14.339Z,0
2018-01-15T06:51:15.818Z,0
2018-01-15T06:52:17.221Z,0
2018-01-15T06:53:18.627Z,0
2018-01-15T06:54:20.137Z,0
2018-01-15T06:55:21.542Z,0
2018-01-15T06:56:23.070Z,0
2018-01-15T06:57:24.464Z,0
2018-01-15T06:58:25.869Z,4
2018-01-15T06:59:27.275Z,0
2018-01-15T07:00:28.781Z,4
2018-01-15T07:01:30.188Z,0
2018-01-15T07:02:31.593Z,4
2018-01-15T07:03:33.103Z,4
2018-01-15T07:04:34.505Z,4
2018-01-15T07:05:35.908Z,8
2018-01-15T07:06:37.442Z,4
2018-01-15T07:07:38.862Z,8
2018-01-15T07:08:40.268Z,12
2018-01-15T07:09:41.745Z,8
2018-01-15T07:10:43.154Z,12
2018-01-15T07:11:44.628Z,16
2018-01-15T07:12:46.033Z,16
2018-01-15T07:13:47.508Z,20
2018-01-15T07:14:48.920Z,20
2018-01-15T07:15:50.388Z,24
2018-01-15T07:16:51.796Z,24
2018-01-15T07:17:53.271Z,28
2018-01-15T07:18:54.679Z,32
2018-01-15T07:19:56.236Z,36
2018-01-15T07:20:57.638Z,44
2018-01-15T07:21:59.243Z,44
2018-01-15T07:23:00.645Z,52
2018-01-15T07:24:02.052Z,60
2018-01-15T07:25:03.560Z,64
2018-01-15T07:26:04.964Z,76
2018-01-15T07:27:06.367Z,80
2018-01-15T07:28:07.886Z,92
2018-01-15T07:29:09.291Z,100
2018-01-15T07:30:10.702Z,108
2018-01-15T07:31:12.204Z,124
2018-01-15T07:32:13.610Z,128
2018-01-15T07:33:15.018Z,140
2018-01-15T07:34:16.579Z,152
2018-01-15T07:35:17.986Z,164
2018-01-15T07:36:19.391Z,176
2018-01-15T07:37:20.852Z,192
2018-01-15T07:38:22.257Z,200
2018-01-15T07:39:23.665Z,212
2018-01-15T07:40:25.174Z,220
2018-01-15T07:41:26.577Z,228
2018-01-15T07:42:27.984Z,240
2018-01-15T07:43:29.512Z,256
2018-01-15T07:44:30.919Z,276
2018-01-15T07:45:32.328Z,296
2018-01-15T07:46:33.818Z,316
2018-01-15T07:47:35.224Z,336
2018-01-15T07:48:36.631Z,360
2018-01-15T07:49:38.137Z,380
2018-01-15T07:50:39.541Z,400
2018-01-15T07:51:41.024Z,416
2018-01-15T07:52:42.432Z,440
2018-01-15T07:53:43.897Z,460
2018-01-15T07:54:45.303Z,480
2018-01-15T07:55:46.710Z,500
2018-01-15T07:56:48.227Z,524
2018-01-15T07:57:49.626Z,548
2018-01-15T07:58:51.035Z,576
2018-01-15T07:59:52.542Z,604
2018-01-15T08:00:53.946Z,632
2018-01-15T08:01:55.351Z,660
2018-01-15T08:02:56.877Z,688
2018-01-15T08:03:58.286Z,712
2018-01-15T08:04:59.692Z,744
2018-01-15T08:06:01.182Z,772
2018-01-15T08:07:02.592Z,792
2018-01-15T08:08:04.064Z,820
2018-01-15T08:09:05.471Z,836
2018-01-15T08:10:06.945Z,860
2018-01-15T08:11:08.352Z,888
2018-01-15T08:12:09.830Z,912
2018-01-15T08:13:11.233Z,932
2018-01-15T08:14:13.175Z,944
2018-01-15T08:15:14.582Z,924
2018-01-15T08:16:15.990Z,900
2018-01-15T08:17:17.438Z,872
2018-01-15T08:18:18.844Z,844
2018-01-15T08:19:20.252Z,816
2018-01-15T08:20:21.762Z,788
2018-01-15T08:21:23.178Z,760
2018-01-15T08:22:24.650Z,736
2018-01-15T08:23:26.059Z,716
2018-01-15T08:24:27.524Z,700
2018-01-15T08:25:28.930Z,668
2018-01-15T08:26:30.641Z,644
2018-01-15T08:27:32.052Z,636
2018-01-15T08:28:33.492Z,636
2018-01-15T08:29:34.897Z,640
2018-01-15T08:30:36.392Z,644
2018-01-15T08:31:37.779Z,644
2018-01-15T08:32:39.253Z,644
2018-01-15T08:33:40.662Z,640
2018-01-15T08:34:42.070Z,636
2018-01-15T08:35:43.571Z,636
2018-01-15T08:36:44.975Z,644
2018-01-15T08:37:46.380Z,648
2018-01-15T08:38:47.894Z,656
2018-01-15T08:39:49.715Z,672
2018-01-15T08:40:51.124Z,700
2018-01-15T08:41:52.626Z,740
2018-01-15T08:42:54.037Z,784
2018-01-15T08:43:55.507Z,832
2018-01-15T08:44:56.916Z,888
2018-01-15T08:45:58.406Z,936
2018-01-15T08:46:59.796Z,988
2018-01-15T08:48:01.269Z,1044
2018-01-15T08:49:02.701Z,1096
2018-01-15T08:50:04.152Z,1136
2018-01-15T08:51:05.560Z,1164
2018-01-15T08:52:07.032Z,1172
2018-01-15T08:53:08.441Z,1164
2018-01-15T08:54:09.931Z,1136
2018-01-15T08:55:11.349Z,1100
2018-01-15T08:56:12.796Z,1052
2018-01-15T08:57:14.208Z,1012
2018-01-15T08:58:15.674Z,980
2018-01-15T08:59:17.706Z,956
2018-01-15T09:00:19.125Z,940
2018-01-15T09:01:20.530Z,932
2018-01-15T09:02:21.948Z,928
2018-01-15T09:03:23.355Z,928
2018-01-15T09:04:25.137Z,928
2018-01-15T09:05:26.561Z,924
2018-01-15T09:06:27.970Z,924
2018-01-15T09:07:29.460Z,936
2018-01-15T09:08:30.866Z,964
2018-01-15T09:09:32.276Z,992
2018-01-15T09:10:33.781Z,1016
2018-01-15T09:11:35.191Z,1044
2018-01-15T09:12:36.669Z,1072
2018-01-15T09:13:38.078Z,1096
2018-01-15T09:14:39.544Z,1128
2018-01-15T09:15:40.953Z,1176
2018-01-15T09:16:42.424Z,1260
2018-01-15T09:17:43.835Z,1356
2018-01-15T09:18:45.306Z,1464
2018-01-15T09:19:46.717Z,1556
2018-01-15T09:20:48.121Z,1636
2018-01-15T09:21:49.627Z,1704
2018-01-15T09:22:51.036Z,1780
2018-01-15T09:23:52.832Z,1844
2018-01-15T09:24:54.360Z,1884
2018-01-15T09:25:56.157Z,1916
2018-01-15T09:26:57.562Z,1956
2018-01-15T09:27:59.097Z,2020
2018-01-15T09:29:00.499Z,2084
2018-01-15T09:30:01.910Z,2136
2018-01-15T09:31:03.434Z,2148
2018-01-15T09:32:04.849Z,2140
2018-01-15T09:33:06.293Z,2120
2018-01-15T09:34:07.702Z,2092
2018-01-15T09:35:09.174Z,2048
2018-01-15T09:36:10.582Z,1996
2018-01-15T09:37:12.053Z,1916
2018-01-15T09:38:13.464Z,1828
2018-01-15T09:39:14.935Z,1752
2018-01-15T09:40:16.346Z,1696
2018-01-15T09:41:17.816Z,1656
2018-01-15T09:42:19.224Z,1624
2018-01-15T09:43:20.728Z,1620
2018-01-15T09:44:22.107Z,1648
2018-01-15T09:45:23.681Z,1696
2018-01-15T09:46:25.086Z,1748
2018-01-15T09:47:26.666Z,1792
2018-01-15T09:48:28.072Z,1816
2018-01-15T09:49:29.546Z,1836
2018-01-15T09:50:30.957Z,1844
2018-01-15T09:51:32.427Z,1900
2018-01-15T09:52:33.848Z,1980
2018-01-15T09:53:35.311Z,2104
2018-01-15T09:54:36.718Z,2228
2018-01-15T09:55:38.123Z,2332
2018-01-15T09:56:39.653Z,2424
2018-01-15T09:57:41.442Z,2568
2018-01-15T09:58:42.851Z,2756
2018-01-15T09:59:44.366Z,2920
2018-01-15T10:00:45.770Z,3076
2018-01-15T10:01:47.183Z,3276
2018-01-15T10:02:48.681Z,3476
2018-01-15T10:03:50.091Z,3624
2018-01-15T10:04:51.498Z,3700
2018-01-15T10:05:53.003Z,3692
2018-01-15T10:06:54.525Z,3632
2018-01-15T10:07:55.923Z,3544
2018-01-15T10:08:57.540Z,3360
2018-01-15T10:09:58.946Z,3144
2018-01-15T10:11:00.357Z,2936
2018-01-15T10:12:01.851Z,2772
2018-01-15T10:13:03.664Z,2640
2018-01-15T10:14:05.074Z,2528
2018-01-15T10:15:06.582Z,2436
2018-01-15T10:16:07.996Z,2380
2018-01-15T10:17:09.407Z,2316
2018-01-15T10:18:10.909Z,2224
2018-01-15T10:19:12.318Z,2120
2018-01-15T10:20:13.787Z,2052
2018-01-15T10:21:15.276Z,2020
2018-01-15T10:22:16.903Z,2076
2018-01-15T10:23:18.314Z,2244
2018-01-15T10:24:19.752Z,2488
2018-01-15T10:25:21.556Z,2700
2018-01-15T10:26:23.104Z,2948
2018-01-15T10:27:24.519Z,3216
2018-01-15T10:28:26.194Z,3404
2018-01-15T10:29:27.603Z,3500
2018-01-15T10:30:29.274Z,3540
2018-01-15T10:31:30.685Z,3528
2018-01-15T10:32:32.092Z,3440
2018-01-15T10:33:33.595Z,3304
2018-01-15T10:34:35.124Z,3124
2018-01-15T10:35:36.536Z,2836
2018-01-15T10:36:38.062Z,2528
2018-01-15T10:37:39.472Z,2252
2018-01-15T10:38:40.876Z,2036
2018-01-15T10:39:42.383Z,1864
2018-01-15T10:40:43.794Z,1736
2018-01-15T10:41:45.203Z,1636
2018-01-15T10:42:46.704Z,1568
2018-01-15T10:43:48.133Z,1556
2018-01-15T10:44:49.592Z,1580
2018-01-15T10:45:50.994Z,1652
2018-01-15T10:46:52.861Z,1736
2018-01-15T10:47:54.269Z,1812
2018-01-15T10:48:55.802Z,1908
2018-01-15T10:49:57.212Z,2004
2018-01-15T10:50:58.625Z,2092
2018-01-15T10:52:00.081Z,2184
2018-01-15T10:53:01.492Z,2288
2018-01-15T10:54:02.905Z,2396
2018-01-15T10:55:04.405Z,2512
2018-01-15T10:56:05.813Z,2644
2018-01-15T10:57:07.225Z,2780
2018-01-15T10:58:08.723Z,2888
2018-01-15T10:59:10.143Z,2952
2018-01-15T11:00:11.603Z,2952
2018-01-15T11:01:13.016Z,2904
2018-01-15T11:02:14.430Z,2812
2018-01-15T11:03:15.927Z,2700
2018-01-15T11:04:17.339Z,2568
2018-01-15T11:05:18.806Z,2448
2018-01-15T11:06:20.219Z,2336
2018-01-15T11:07:21.628Z,2268
2018-01-15T11:08:23.128Z,2240
2018-01-15T11:09:24.537Z,2236
2018-01-15T11:10:25.949Z,2248
2018-01-15T11:11:27.451Z,2304
2018-01-15T11:12:28.882Z,2392
2018-01-15T11:13:30.295Z,2472
2018-01-15T11:14:31.774Z,2520
2018-01-15T11:15:33.182Z,2520
2018-01-15T11:16:34.588Z,2504
2018-01-15T11:17:36.108Z,2476
2018-01-15T11:18:37.518Z,2448
2018-01-15T11:19:38.930Z,2444
2018-01-15T11:20:40.414Z,2440
2018-01-15T11:21:41.826Z,2380
2018-01-15T11:22:43.234Z,2280
2018-01-15T11:23:44.737Z,2192
2018-01-15T11:24:46.145Z,2092
2018-01-15T11:25:47.569Z,1956
2018-01-15T11:26:49.063Z,1820
2018-01-15T11:27:50.472Z,1712
2018-01-15T11:28:51.940Z,1616
2018-01-15T11:29:53.376Z,1528
2018-01-15T11:30:54.821Z,1460
2018-01-15T11:31:56.293Z,1444
2018-01-15T11:32:57.904Z,1484
2018-01-15T11:33:59.318Z,1560
2018-01-15T11:35:00.786Z,1696
2018-01-15T11:36:02.198Z,1892
2018-01-15T11:37:03.606Z,2112
2018-01-15T11:38:05.107Z,2272
2018-01-15T11:39:06.519Z,2316
2018-01-15T11:40:07.930Z,2308
2018-01-15T11:41:09.430Z,2348
2018-01-15T11:42:10.847Z,2344
2018-01-15T11:43:12.256Z,2292
2018-01-15T11:44:13.742Z,2196
2018-01-15T11:45:15.110Z,2108
2018-01-15T11:46:16.579Z,2072
2018-01-15T11:47:18.076Z,2072
2018-01-15T11:48:19.487Z,2044
2018-01-15T11:49:20.910Z,1988
2018-01-15T11:50:22.395Z,1876
2018-01-15T11:51:23.807Z,1732
2018-01-15T11:52:25.246Z,1596
2018-01-15T11:53:26.714Z,1476
2018-01-15T11:54:28.505Z,1408
2018-01-15T11:55:29.914Z,1424
2018-01-15T11:56:31.447Z,1468
2018-01-15T11:57:32.854Z,1544
2018-01-15T11:58:34.261Z,1632
2018-01-15T11:59:35.793Z,1600
2018-01-15T12:00:37.192Z,1540
2018-01-15T12:01:38.604Z,1516
2018-01-15T12:02:40.090Z,1520
2018-01-15T12:03:41.501Z,1428
2018-01-15T12:04:43.376Z,1468
2018-01-15T12:05:44.785Z,1528
2018-01-15T12:06:46.263Z,1368
2018-01-15T12:07:47.671Z,1136
2018-01-15T12:08:49.079Z,1088
2018-01-15T12:09:50.584Z,1088
2018-01-15T12:10:51.994Z,1116
2018-01-15T12:11:53.402Z,1196
2018-01-15T12:12:54.952Z,1316
2018-01-15T12:13:56.441Z,1332
2018-01-15T12:14:57.992Z,1344
2018-01-15T12:15:59.402Z,1160
2018-01-15T12:17:00.811Z,976
2018-01-15T12:18:02.336Z,1016
2018-01-15T12:19:03.720Z,936
2018-01-15T12:20:05.127Z,1068
2018-01-15T12:21:06.635Z,1464
2018-01-15T12:22:08.039Z,1664
2018-01-15T12:23:09.450Z,1776
2018-01-15T12:24:10.955Z,1852
2018-01-15T12:25:12.363Z,2044
2018-01-15T12:26:13.772Z,2116
2018-01-15T12:27:15.277Z,2064
2018-01-15T12:28:16.762Z,2004
2018-01-15T12:29:18.176Z,1964
2018-01-15T12:30:19.599Z,1968
2018-01-15T12:31:21.007Z,1988
2018-01-15T12:32:22.416Z,2092
2018-01-15T12:33:23.921Z,2132
2018-01-15T12:34:25.329Z,2152
2018-01-15T12:35:26.740Z,2148
2018-01-15T12:36:28.243Z,2136
2018-01-15T12:37:29.651Z,2064
2018-01-15T12:38:31.065Z,2180
2018-01-15T12:39:32.563Z,2252
2018-01-15T12:40:33.972Z,2084
2018-01-15T12:41:35.446Z,2248
2018-01-15T12:42:36.863Z,2356
2018-01-15T12:43:38.276Z,2184
2018-01-15T12:44:39.768Z,1936
2018-01-15T12:45:41.178Z,1548
2018-01-15T12:46:42.589Z,1444
2018-01-15T12:47:44.087Z,1536
2018-01-15T12:48:45.494Z,1460
2018-01-15T12:49:46.902Z,1496
2018-01-15T12:50:48.414Z,1548
2018-01-15T12:51:49.820Z,1596
2018-01-15T12:52:51.229Z,1568
2018-01-15T12:53:52.731Z,1484
2018-01-15T12:54:54.135Z,1524
2018-01-15T12:55:55.544Z,1444
2018-01-15T12:56:57.160Z,1396
2018-01-15T12:57:58.568Z,1276
2018-01-15T12:58:59.981Z,1240
2018-01-15T13:00:01.783Z,1188
2018-01-15T13:01:03.194Z,1228
2018-01-15T13:02:04.665Z,1636
2018-01-15T13:03:06.080Z,1732
2018-01-15T13:04:07.489Z,2120
2018-01-15T13:05:08.989Z,2268
2018-01-15T13:06:10.401Z,2132
2018-01-15T13:07:11.810Z,1712
2018-01-15T13:08:13.230Z,1464
2018-01-15T13:09:14.641Z,1360
2018-01-15T13:10:16.042Z,1228
2018-01-15T13:11:17.665Z,1660
2018-01-15T13:12:19.073Z,2060
2018-01-15T13:13:20.483Z,2044
2018-01-15T13:14:21.989Z,1920
2018-01-15T13:15:23.397Z,1752
2018-01-15T13:16:24.805Z,1660
2018-01-15T13:17:26.308Z,1644
2018-01-15T13:18:27.768Z,1680
2018-01-15T13:19:29.152Z,1676
2018-01-15T13:20:30.629Z,1596
2018-01-15T13:21:32.051Z,1440
2018-01-15T13:22:33.460Z,1296
2018-01-15T13:23:34.996Z,1032
2018-01-15T13:24:36.356Z,948
2018-01-15T13:25:37.825Z,776
2018-01-15T13:26:39.441Z,784
2018-01-15T13:27:40.846Z,736
2018-01-15T13:28:42.251Z,840
2018-01-15T13:29:43.762Z,960
2018-01-15T13:30:45.170Z,1080
2018-01-15T13:31:46.649Z,1204
2018-01-15T13:32:48.061Z,1280
2018-01-15T13:33:49.525Z,1532
2018-01-15T13:34:50.935Z,1660
2018-01-15T13:35:52.407Z,1540
2018-01-15T13:36:53.842Z,1436
2018-01-15T13:37:55.288Z,1288
2018-01-15T13:38:57.378Z,1148
2018-01-15T13:39:58.785Z,1112
2018-01-15T13:41:00.224Z,1084
2018-01-15T13:42:01.632Z,1064
2018-01-15T13:43:03.043Z,1040
2018-01-15T13:44:04.546Z,1008
2018-01-15T13:45:05.956Z,992
2018-01-15T13:46:07.362Z,900
2018-01-15T13:47:08.875Z,832
2018-01-15T13:48:10.286Z,652
2018-01-15T13:49:11.688Z,552
2018-01-15T13:50:13.186Z,456
2018-01-15T13:51:14.594Z,400
2018-01-15T13:52:15.999Z,380
2018-01-15T13:53:17.626Z,388
2018-01-15T13:54:19.040Z,408
2018-01-15T13:55:20.595Z,432
2018-01-15T13:56:22.006Z,444
2018-01-15T13:57:23.502Z,448
2018-01-15T13:58:24.911Z,448
2018-01-15T13:59:26.317Z,484
2018-01-15T14:00:27.827Z,512
2018-01-15T14:01:29.234Z,528
2018-01-15T14:02:30.658Z,472
2018-01-15T14:03:32.149Z,460
2018-01-15T14:04:33.558Z,380
2018-01-15T14:05:34.994Z,300
2018-01-15T14:06:36.469Z,284
2018-01-15T14:07:37.989Z,316
2018-01-15T14:08:39.402Z,352
2018-01-15T14:09:40.826Z,408
2018-01-15T14:10:42.438Z,444
2018-01-15T14:11:43.878Z,536
2018-01-15T14:12:45.320Z,564
2018-01-15T14:13:46.725Z,588
2018-01-15T14:14:48.131Z,616
2018-01-15T14:15:49.676Z,552
2018-01-15T14:16:51.048Z,548
2018-01-15T14:17:52.462Z,488
2018-01-15T14:18:53.935Z,464
2018-01-15T14:19:55.344Z,408
2018-01-15T14:20:56.750Z,392
2018-01-15T14:21:58.378Z,364
2018-01-15T14:22:59.784Z,312
2018-01-15T14:24:01.197Z,284
2018-01-15T14:25:02.810Z,280
2018-01-15T14:26:04.217Z,340
2018-01-15T14:27:05.663Z,420